sensor_id;sensor_type;location;lat;lon;timestamp;P1;durP1;ratioP1;P2;durP2;ratioP2
12202;SDS011;6164;42.178;24.622;2023-04-03T00:02:21;6.68;;;5.97;;
12202;SDS011;6164;42.178;24.622;2023-04-03T00:04:48;7.43;;;5.53;;
12202;SDS011;6164;42.178;24.622;2023-04-03T00:07:15;6.25;;;5.18;;
12202;SDS011;6164;42.178;24.622;2023-04-03T00:09:43;5.22;;;3.97;;
12202;SDS011;6164;42.178;24.622;2023-04-03T00:12:10;5.35;;;3.75;;
12202;SDS011;6164;42.178;24.622;2023-04-03T00:14:36;4.95;;;3.65;;
12202;SDS011;6164;42.178;24.622;2023-04-03T00:17:03;3.35;;;2.97;;
12202;SDS011;6164;42.178;24.622;2023-04-03T00:19:30;4.50;;;2.60;;
12202;SDS011;6164;42.178;24.622;2023-04-03T00:21:57;2.95;;;2.13;;
12202;SDS011;6164;42.178;24.622;2023-04-03T00:24:23;4.00;;;2.38;;
12202;SDS011;6164;42.178;24.622;2023-04-03T00:26:52;2.70;;;2.00;;
12202;SDS011;6164;42.178;24.622;2023-04-03T00:29:18;3.05;;;2.20;;
12202;SDS011;6164;42.178;24.622;2023-04-03T00:31:45;2.53;;;2.10;;
12202;SDS011;6164;42.178;24.622;2023-04-03T00:34:12;2.00;;;1.80;;
12202;SDS011;6164;42.178;24.622;2023-04-03T00:36:38;2.85;;;1.92;;
12202;SDS011;6164;42.178;24.622;2023-04-03T00:39:05;2.58;;;1.88;;
12202;SDS011;6164;42.178;24.622;2023-04-03T00:41:32;2.10;;;1.73;;
12202;SDS011;6164;42.178;24.622;2023-04-03T00:44:00;2.10;;;1.75;;
12202;SDS011;6164;42.178;24.622;2023-04-03T00:46:27;4.65;;;1.92;;
12202;SDS011;6164;42.178;24.622;2023-04-03T00:48:53;2.20;;;1.67;;
12202;SDS011;6164;42.178;24.622;2023-04-03T00:51:22;1.90;;;1.67;;
12202;SDS011;6164;42.178;24.622;2023-04-03T00:53:51;2.70;;;1.90;;
12202;SDS011;6164;42.178;24.622;2023-04-03T00:56:22;4.32;;;2.00;;
12202;SDS011;6164;42.178;24.622;2023-04-03T00:58:51;3.20;;;2.03;;
12202;SDS011;6164;42.178;24.622;2023-04-03T01:01:28;4.18;;;2.00;;
12202;SDS011;6164;42.178;24.622;2023-04-03T01:03:56;3.08;;;2.10;;
12202;SDS011;6164;42.178;24.622;2023-04-03T01:06:25;2.42;;;2.05;;
12202;SDS011;6164;42.178;24.622;2023-04-03T01:08:56;2.25;;;1.70;;
12202;SDS011;6164;42.178;24.622;2023-04-03T01:11:23;2.15;;;1.80;;
12202;SDS011;6164;42.178;24.622;2023-04-03T01:13:50;3.70;;;1.80;;
12202;SDS011;6164;42.178;24.622;2023-04-03T01:16:17;2.33;;;1.83;;
12202;SDS011;6164;42.178;24.622;2023-04-03T01:18:46;3.25;;;1.85;;
12202;SDS011;6164;42.178;24.622;2023-04-03T01:26:59;3.03;;;2.10;;
12202;SDS011;6164;42.178;24.622;2023-04-03T01:29:28;2.33;;;1.95;;
12202;SDS011;6164;42.178;24.622;2023-04-03T01:31:57;2.55;;;1.77;;
12202;SDS011;6164;42.178;24.622;2023-04-03T01:34:25;2.25;;;1.70;;
12202;SDS011;6164;42.178;24.622;2023-04-03T01:36:52;2.40;;;1.90;;
12202;SDS011;6164;42.178;24.622;2023-04-03T01:39:19;1.58;;;1.48;;
12202;SDS011;6164;42.178;24.622;2023-04-03T01:41:47;4.22;;;1.73;;
12202;SDS011;6164;42.178;24.622;2023-04-03T01:44:14;3.58;;;1.88;;
12202;SDS011;6164;42.178;24.622;2023-04-03T01:46:41;6.88;;;2.65;;
12202;SDS011;6164;42.178;24.622;2023-04-03T01:49:09;4.70;;;2.33;;
12202;SDS011;6164;42.178;24.622;2023-04-03T01:51:36;3.38;;;2.10;;
12202;SDS011;6164;42.178;24.622;2023-04-03T01:54:03;5.78;;;2.03;;
12202;SDS011;6164;42.178;24.622;2023-04-03T01:56:30;3.65;;;1.80;;
12202;SDS011;6164;42.178;24.622;2023-04-03T01:58:57;1.98;;;1.77;;
12202;SDS011;6164;42.178;24.622;2023-04-03T02:01:23;2.90;;;2.13;;
12202;SDS011;6164;42.178;24.622;2023-04-03T02:03:50;3.25;;;1.75;;
12202;SDS011;6164;42.178;24.622;2023-04-03T02:06:18;3.08;;;1.80;;
12202;SDS011;6164;42.178;24.622;2023-04-03T02:08:45;2.05;;;1.63;;
12202;SDS011;6164;42.178;24.622;2023-04-03T02:11:12;1.95;;;1.63;;
12202;SDS011;6164;42.178;24.622;2023-04-03T02:13:39;2.35;;;1.65;;
12202;SDS011;6164;42.178;24.622;2023-04-03T02:16:06;3.70;;;2.40;;
12202;SDS011;6164;42.178;24.622;2023-04-03T02:18:34;2.53;;;1.95;;
12202;SDS011;6164;42.178;24.622;2023-04-03T02:21:01;6.03;;;2.00;;
12202;SDS011;6164;42.178;24.622;2023-04-03T02:23:29;3.83;;;2.00;;
12202;SDS011;6164;42.178;24.622;2023-04-03T02:26:02;3.25;;;2.22;;
12202;SDS011;6164;42.178;24.622;2023-04-03T02:28:30;3.72;;;2.25;;
12202;SDS011;6164;42.178;24.622;2023-04-03T02:30:57;3.72;;;2.22;;
12202;SDS011;6164;42.178;24.622;2023-04-03T02:33:24;2.83;;;2.20;;
12202;SDS011;6164;42.178;24.622;2023-04-03T02:35:52;3.38;;;2.60;;
12202;SDS011;6164;42.178;24.622;2023-04-03T02:38:19;2.60;;;2.17;;
12202;SDS011;6164;42.178;24.622;2023-04-03T02:40:47;3.03;;;2.42;;
12202;SDS011;6164;42.178;24.622;2023-04-03T02:43:14;3.15;;;2.50;;
12202;SDS011;6164;42.178;24.622;2023-04-03T02:45:41;3.70;;;2.63;;
12202;SDS011;6164;42.178;24.622;2023-04-03T02:48:08;3.53;;;2.60;;
12202;SDS011;6164;42.178;24.622;2023-04-03T02:50:34;3.53;;;2.45;;
12202;SDS011;6164;42.178;24.622;2023-04-03T02:53:01;4.25;;;2.50;;
12202;SDS011;6164;42.178;24.622;2023-04-03T02:55:28;4.32;;;2.63;;
12202;SDS011;6164;42.178;24.622;2023-04-03T02:57:56;6.38;;;2.80;;
12202;SDS011;6164;42.178;24.622;2023-04-03T03:00:23;5.95;;;2.47;;
12202;SDS011;6164;42.178;24.622;2023-04-03T03:02:49;3.85;;;2.40;;
12202;SDS011;6164;42.178;24.622;2023-04-03T03:05:16;3.78;;;2.47;;
12202;SDS011;6164;42.178;24.622;2023-04-03T03:07:43;2.60;;;1.90;;
12202;SDS011;6164;42.178;24.622;2023-04-03T03:10:10;2.92;;;2.25;;
12202;SDS011;6164;42.178;24.622;2023-04-03T03:12:36;2.17;;;1.75;;
12202;SDS011;6164;42.178;24.622;2023-04-03T03:15:05;3.00;;;2.03;;
12202;SDS011;6164;42.178;24.622;2023-04-03T03:17:33;3.88;;;2.10;;
12202;SDS011;6164;42.178;24.622;2023-04-03T03:20:01;2.35;;;1.88;;
12202;SDS011;6164;42.178;24.622;2023-04-03T03:22:28;5.35;;;2.00;;
12202;SDS011;6164;42.178;24.622;2023-04-03T03:24:55;2.00;;;1.80;;
12202;SDS011;6164;42.178;24.622;2023-04-03T03:27:21;5.20;;;2.38;;
12202;SDS011;6164;42.178;24.622;2023-04-03T03:29:49;2.85;;;1.92;;
12202;SDS011;6164;42.178;24.622;2023-04-03T03:32:17;3.85;;;2.25;;
12202;SDS011;6164;42.178;24.622;2023-04-03T03:34:44;8.50;;;3.38;;
12202;SDS011;6164;42.178;24.622;2023-04-03T03:37:11;4.30;;;3.10;;
12202;SDS011;6164;42.178;24.622;2023-04-03T03:39:37;6.70;;;3.47;;
12202;SDS011;6164;42.178;24.622;2023-04-03T03:42:04;3.92;;;2.80;;
12202;SDS011;6164;42.178;24.622;2023-04-03T03:44:31;5.63;;;2.40;;
12202;SDS011;6164;42.178;24.622;2023-04-03T03:46:58;5.35;;;2.67;;
12202;SDS011;6164;42.178;24.622;2023-04-03T03:49:27;4.72;;;3.20;;
12202;SDS011;6164;42.178;24.622;2023-04-03T03:51:54;4.20;;;2.85;;
12202;SDS011;6164;42.178;24.622;2023-04-03T03:54:20;7.10;;;3.13;;
12202;SDS011;6164;42.178;24.622;2023-04-03T03:56:47;7.78;;;3.10;;
12202;SDS011;6164;42.178;24.622;2023-04-03T03:59:14;8.35;;;3.38;;
12202;SDS011;6164;42.178;24.622;2023-04-03T04:01:41;5.38;;;2.90;;
12202;SDS011;6164;42.178;24.622;2023-04-03T04:04:08;4.85;;;3.10;;
12202;SDS011;6164;42.178;24.622;2023-04-03T04:06:36;7.85;;;3.33;;
12202;SDS011;6164;42.178;24.622;2023-04-03T04:09:03;6.43;;;3.28;;
12202;SDS011;6164;42.178;24.622;2023-04-03T04:11:30;5.53;;;2.88;;
12202;SDS011;6164;42.178;24.622;2023-04-03T04:13:58;5.90;;;3.15;;
12202;SDS011;6164;42.178;24.622;2023-04-03T04:16:25;6.72;;;4.35;;
12202;SDS011;6164;42.178;24.622;2023-04-03T04:18:51;4.72;;;3.28;;
12202;SDS011;6164;42.178;24.622;2023-04-03T04:21:18;8.40;;;3.60;;
12202;SDS011;6164;42.178;24.622;2023-04-03T04:23:46;5.97;;;2.90;;
12202;SDS011;6164;42.178;24.622;2023-04-03T04:26:13;4.90;;;2.92;;
12202;SDS011;6164;42.178;24.622;2023-04-03T04:28:40;5.78;;;2.95;;
12202;SDS011;6164;42.178;24.622;2023-04-03T04:31:06;5.60;;;3.78;;
12202;SDS011;6164;42.178;24.622;2023-04-03T04:33:33;9.18;;;5.57;;
12202;SDS011;6164;42.178;24.622;2023-04-03T04:36:00;7.10;;;3.65;;
12202;SDS011;6164;42.178;24.622;2023-04-03T04:38:27;5.15;;;3.55;;
12202;SDS011;6164;42.178;24.622;2023-04-03T04:40:55;9.82;;;4.13;;
12202;SDS011;6164;42.178;24.622;2023-04-03T04:43:22;12.45;;;3.85;;
12202;SDS011;6164;42.178;24.622;2023-04-03T04:45:49;12.93;;;3.67;;
12202;SDS011;6164;42.178;24.622;2023-04-03T04:48:25;8.75;;;4.13;;
12202;SDS011;6164;42.178;24.622;2023-04-03T04:50:52;8.55;;;5.43;;
12202;SDS011;6164;42.178;24.622;2023-04-03T04:53:19;7.03;;;2.88;;
12202;SDS011;6164;42.178;24.622;2023-04-03T04:55:45;4.78;;;3.00;;
12202;SDS011;6164;42.178;24.622;2023-04-03T04:58:14;7.10;;;3.10;;
12202;SDS011;6164;42.178;24.622;2023-04-03T05:00:41;3.78;;;3.05;;
12202;SDS011;6164;42.178;24.622;2023-04-03T05:03:07;5.15;;;3.28;;
12202;SDS011;6164;42.178;24.622;2023-04-03T05:05:34;7.28;;;3.35;;
12202;SDS011;6164;42.178;24.622;2023-04-03T05:08:01;3.80;;;2.80;;
12202;SDS011;6164;42.178;24.622;2023-04-03T05:10:28;3.90;;;3.00;;
12202;SDS011;6164;42.178;24.622;2023-04-03T05:12:56;3.90;;;2.70;;
12202;SDS011;6164;42.178;24.622;2023-04-03T05:15:24;7.20;;;3.25;;
12202;SDS011;6164;42.178;24.622;2023-04-03T05:17:51;6.05;;;3.03;;
12202;SDS011;6164;42.178;24.622;2023-04-03T05:20:18;4.72;;;3.33;;
12202;SDS011;6164;42.178;24.622;2023-04-03T05:22:44;6.15;;;4.20;;
12202;SDS011;6164;42.178;24.622;2023-04-03T05:25:11;8.48;;;3.75;;
12202;SDS011;6164;42.178;24.622;2023-04-03T05:27:38;4.43;;;3.25;;
12202;SDS011;6164;42.178;24.622;2023-04-03T05:30:06;7.57;;;3.83;;
12202;SDS011;6164;42.178;24.622;2023-04-03T05:32:38;7.53;;;4.20;;
12202;SDS011;6164;42.178;24.622;2023-04-03T05:35:06;9.70;;;4.10;;
12202;SDS011;6164;42.178;24.622;2023-04-03T05:37:33;27.52;;;9.43;;
12202;SDS011;6164;42.178;24.622;2023-04-03T05:40:00;14.45;;;7.65;;
12202;SDS011;6164;42.178;24.622;2023-04-03T05:42:28;7.65;;;3.50;;
12202;SDS011;6164;42.178;24.622;2023-04-03T05:44:55;4.07;;;3.47;;
12202;SDS011;6164;42.178;24.622;2023-04-03T05:47:21;6.00;;;3.83;;
12202;SDS011;6164;42.178;24.622;2023-04-03T05:49:49;3.65;;;3.08;;
12202;SDS011;6164;42.178;24.622;2023-04-03T05:52:17;9.05;;;3.28;;
12202;SDS011;6164;42.178;24.622;2023-04-03T05:54:47;4.75;;;3.80;;
12202;SDS011;6164;42.178;24.622;2023-04-03T05:57:14;4.47;;;3.22;;
12202;SDS011;6164;42.178;24.622;2023-04-03T05:59:41;4.47;;;3.00;;
12202;SDS011;6164;42.178;24.622;2023-04-03T06:02:08;3.20;;;2.88;;
12202;SDS011;6164;42.178;24.622;2023-04-03T06:04:36;3.20;;;2.55;;
12202;SDS011;6164;42.178;24.622;2023-04-03T06:07:04;4.35;;;2.83;;
12202;SDS011;6164;42.178;24.622;2023-04-03T06:09:31;3.55;;;2.60;;
12202;SDS011;6164;42.178;24.622;2023-04-03T06:11:58;3.95;;;2.45;;
12202;SDS011;6164;42.178;24.622;2023-04-03T06:14:25;3.97;;;2.38;;
12202;SDS011;6164;42.178;24.622;2023-04-03T06:16:52;3.60;;;2.45;;
12202;SDS011;6164;42.178;24.622;2023-04-03T06:19:21;2.92;;;2.47;;
12202;SDS011;6164;42.178;24.622;2023-04-03T06:21:48;4.78;;;2.70;;
12202;SDS011;6164;42.178;24.622;2023-04-03T06:24:16;5.38;;;3.03;;
12202;SDS011;6164;42.178;24.622;2023-04-03T06:26:45;4.10;;;2.92;;
12202;SDS011;6164;42.178;24.622;2023-04-03T06:29:11;3.80;;;2.92;;
12202;SDS011;6164;42.178;24.622;2023-04-03T06:31:38;5.97;;;2.80;;
12202;SDS011;6164;42.178;24.622;2023-04-03T06:34:05;3.33;;;2.40;;
12202;SDS011;6164;42.178;24.622;2023-04-03T06:36:32;5.82;;;2.60;;
12202;SDS011;6164;42.178;24.622;2023-04-03T06:38:59;4.25;;;2.42;;
12202;SDS011;6164;42.178;24.622;2023-04-03T06:41:27;4.90;;;3.25;;
12202;SDS011;6164;42.178;24.622;2023-04-03T06:43:54;6.07;;;2.90;;
12202;SDS011;6164;42.178;24.622;2023-04-03T06:46:23;5.50;;;3.70;;
12202;SDS011;6164;42.178;24.622;2023-04-03T06:48:50;3.95;;;2.90;;
12202;SDS011;6164;42.178;24.622;2023-04-03T06:51:18;4.35;;;3.10;;
12202;SDS011;6164;42.178;24.622;2023-04-03T06:53:46;3.92;;;2.90;;
12202;SDS011;6164;42.178;24.622;2023-04-03T06:56:14;8.82;;;3.38;;
12202;SDS011;6164;42.178;24.622;2023-04-03T06:58:43;8.10;;;3.60;;
12202;SDS011;6164;42.178;24.622;2023-04-03T07:01:10;10.70;;;5.57;;
12202;SDS011;6164;42.178;24.622;2023-04-03T07:03:38;8.07;;;4.10;;
12202;SDS011;6164;42.178;24.622;2023-04-03T07:06:05;9.15;;;4.75;;
12202;SDS011;6164;42.178;24.622;2023-04-03T07:08:33;6.07;;;4.03;;
12202;SDS011;6164;42.178;24.622;2023-04-03T07:11:00;9.93;;;3.47;;
12202;SDS011;6164;42.178;24.622;2023-04-03T07:13:27;4.60;;;3.40;;
12202;SDS011;6164;42.178;24.622;2023-04-03T07:15:55;6.65;;;3.13;;
12202;SDS011;6164;42.178;24.622;2023-04-03T07:18:22;23.83;;;14.60;;
12202;SDS011;6164;42.178;24.622;2023-04-03T07:20:50;7.82;;;4.20;;
12202;SDS011;6164;42.178;24.622;2023-04-03T07:23:17;6.35;;;4.55;;
12202;SDS011;6164;42.178;24.622;2023-04-03T07:25:44;5.53;;;3.90;;
12202;SDS011;6164;42.178;24.622;2023-04-03T07:28:11;5.97;;;3.63;;
12202;SDS011;6164;42.178;24.622;2023-04-03T07:30:42;10.20;;;4.40;;
12202;SDS011;6164;42.178;24.622;2023-04-03T07:33:12;8.80;;;4.78;;
12202;SDS011;6164;42.178;24.622;2023-04-03T07:35:40;13.52;;;4.70;;
12202;SDS011;6164;42.178;24.622;2023-04-03T07:38:08;7.78;;;5.13;;
12202;SDS011;6164;42.178;24.622;2023-04-03T07:40:36;8.77;;;4.80;;
12202;SDS011;6164;42.178;24.622;2023-04-03T07:43:04;9.57;;;4.90;;
12202;SDS011;6164;42.178;24.622;2023-04-03T07:45:31;6.78;;;4.72;;
12202;SDS011;6164;42.178;24.622;2023-04-03T07:48:00;8.82;;;4.40;;
12202;SDS011;6164;42.178;24.622;2023-04-03T07:50:28;8.23;;;4.20;;
12202;SDS011;6164;42.178;24.622;2023-04-03T07:52:57;8.00;;;4.43;;
12202;SDS011;6164;42.178;24.622;2023-04-03T07:55:24;5.65;;;3.28;;
12202;SDS011;6164;42.178;24.622;2023-04-03T07:57:51;5.28;;;3.67;;
12202;SDS011;6164;42.178;24.622;2023-04-03T08:00:18;13.15;;;5.07;;
12202;SDS011;6164;42.178;24.622;2023-04-03T08:02:45;10.68;;;5.53;;
12202;SDS011;6164;42.178;24.622;2023-04-03T08:05:15;8.65;;;4.97;;
12202;SDS011;6164;42.178;24.622;2023-04-03T08:07:43;9.82;;;4.68;;
12202;SDS011;6164;42.178;24.622;2023-04-03T08:10:11;8.15;;;4.38;;
12202;SDS011;6164;42.178;24.622;2023-04-03T08:12:38;17.73;;;6.38;;
12202;SDS011;6164;42.178;24.622;2023-04-03T08:15:05;16.92;;;6.85;;
12202;SDS011;6164;42.178;24.622;2023-04-03T08:17:33;6.60;;;3.63;;
12202;SDS011;6164;42.178;24.622;2023-04-03T08:20:00;9.65;;;3.97;;
12202;SDS011;6164;42.178;24.622;2023-04-03T08:22:27;7.03;;;3.45;;
12202;SDS011;6164;42.178;24.622;2023-04-03T08:24:55;6.93;;;3.38;;
12202;SDS011;6164;42.178;24.622;2023-04-03T08:27:22;7.00;;;3.00;;
12202;SDS011;6164;42.178;24.622;2023-04-03T08:29:48;8.93;;;3.88;;
12202;SDS011;6164;42.178;24.622;2023-04-03T08:32:15;4.50;;;2.67;;
12202;SDS011;6164;42.178;24.622;2023-04-03T08:34:43;3.95;;;2.50;;
12202;SDS011;6164;42.178;24.622;2023-04-03T08:37:10;4.07;;;2.63;;
12202;SDS011;6164;42.178;24.622;2023-04-03T08:39:36;4.70;;;2.38;;
12202;SDS011;6164;42.178;24.622;2023-04-03T08:42:05;3.00;;;2.20;;
12202;SDS011;6164;42.178;24.622;2023-04-03T08:44:46;2.67;;;2.30;;
12202;SDS011;6164;42.178;24.622;2023-04-03T08:47:18;4.35;;;2.17;;
12202;SDS011;6164;42.178;24.622;2023-04-03T08:49:51;2.63;;;2.00;;
12202;SDS011;6164;42.178;24.622;2023-04-03T08:52:22;2.63;;;2.00;;
12202;SDS011;6164;42.178;24.622;2023-04-03T08:55:00;2.70;;;2.17;;
12202;SDS011;6164;42.178;24.622;2023-04-03T08:57:32;2.55;;;2.00;;
12202;SDS011;6164;42.178;24.622;2023-04-03T09:00:03;2.05;;;1.80;;
12202;SDS011;6164;42.178;24.622;2023-04-03T09:02:42;3.35;;;2.00;;
12202;SDS011;6164;42.178;24.622;2023-04-03T09:05:12;5.00;;;2.20;;
12202;SDS011;6164;42.178;24.622;2023-04-03T09:07:42;2.63;;;1.88;;
12202;SDS011;6164;42.178;24.622;2023-04-03T09:10:13;2.53;;;1.80;;
12202;SDS011;6164;42.178;24.622;2023-04-03T09:12:44;3.03;;;1.95;;
12202;SDS011;6164;42.178;24.622;2023-04-03T09:15:17;2.67;;;2.20;;
12202;SDS011;6164;42.178;24.622;2023-04-03T09:17:55;3.28;;;2.10;;
12202;SDS011;6164;42.178;24.622;2023-04-03T09:20:27;2.95;;;1.85;;
12202;SDS011;6164;42.178;24.622;2023-04-03T09:23:09;4.15;;;2.33;;
12202;SDS011;6164;42.178;24.622;2023-04-03T09:25:47;10.00;;;2.35;;
12202;SDS011;6164;42.178;24.622;2023-04-03T09:28:16;2.78;;;2.40;;
12202;SDS011;6164;42.178;24.622;2023-04-03T09:30:43;3.80;;;2.42;;
12202;SDS011;6164;42.178;24.622;2023-04-03T09:33:10;2.95;;;2.50;;
12202;SDS011;6164;42.178;24.622;2023-04-03T09:35:38;7.57;;;3.35;;
12202;SDS011;6164;42.178;24.622;2023-04-03T09:38:18;11.40;;;4.53;;
12202;SDS011;6164;42.178;24.622;2023-04-03T09:40:46;7.55;;;3.85;;
12202;SDS011;6164;42.178;24.622;2023-04-03T09:43:28;10.20;;;4.30;;
12202;SDS011;6164;42.178;24.622;2023-04-03T09:45:56;11.18;;;4.63;;
12202;SDS011;6164;42.178;24.622;2023-04-03T09:48:49;7.95;;;4.20;;
12202;SDS011;6164;42.178;24.622;2023-04-03T09:51:17;9.20;;;4.60;;
12202;SDS011;6164;42.178;24.622;2023-04-03T09:53:44;13.23;;;5.07;;
12202;SDS011;6164;42.178;24.622;2023-04-03T09:56:19;10.63;;;5.00;;
12202;SDS011;6164;42.178;24.622;2023-04-03T09:58:49;5.22;;;3.13;;
12202;SDS011;6164;42.178;24.622;2023-04-03T10:01:22;7.45;;;3.35;;
12202;SDS011;6164;42.178;24.622;2023-04-03T10:04:06;10.02;;;4.00;;
12202;SDS011;6164;42.178;24.622;2023-04-03T10:06:35;6.85;;;2.95;;
12202;SDS011;6164;42.178;24.622;2023-04-03T10:09:09;5.28;;;3.20;;
12202;SDS011;6164;42.178;24.622;2023-04-03T10:11:50;7.97;;;3.40;;
12202;SDS011;6164;42.178;24.622;2023-04-03T10:14:25;6.68;;;3.60;;
12202;SDS011;6164;42.178;24.622;2023-04-03T10:16:54;6.28;;;3.65;;
12202;SDS011;6164;42.178;24.622;2023-04-03T10:19:35;3.88;;;2.83;;
12202;SDS011;6164;42.178;24.622;2023-04-03T10:22:10;6.82;;;2.70;;
12202;SDS011;6164;42.178;24.622;2023-04-03T10:24:52;2.97;;;2.10;;
12202;SDS011;6164;42.178;24.622;2023-04-03T10:27:31;4.38;;;2.95;;
12202;SDS011;6164;42.178;24.622;2023-04-03T10:30:12;3.10;;;2.00;;
12202;SDS011;6164;42.178;24.622;2023-04-03T10:32:57;2.20;;;2.00;;
12202;SDS011;6164;42.178;24.622;2023-04-03T10:35:37;3.42;;;2.10;;
12202;SDS011;6164;42.178;24.622;2023-04-03T10:38:13;3.05;;;2.35;;
12202;SDS011;6164;42.178;24.622;2023-04-03T10:40:47;3.65;;;2.15;;
12202;SDS011;6164;42.178;24.622;2023-04-03T10:43:23;5.03;;;2.15;;
12202;SDS011;6164;42.178;24.622;2023-04-03T10:45:59;4.07;;;2.17;;
12202;SDS011;6164;42.178;24.622;2023-04-03T10:51:23;3.75;;;2.45;;
12202;SDS011;6164;42.178;24.622;2023-04-03T10:53:55;15.10;;;8.13;;
12202;SDS011;6164;42.178;24.622;2023-04-03T10:56:30;5.60;;;4.57;;
12202;SDS011;6164;42.178;24.622;2023-04-03T10:59:06;29.95;;;15.60;;
12202;SDS011;6164;42.178;24.622;2023-04-03T11:01:44;42.22;;;20.30;;
12202;SDS011;6164;42.178;24.622;2023-04-03T11:04:13;32.20;;;19.02;;
12202;SDS011;6164;42.178;24.622;2023-04-03T11:06:45;40.92;;;22.33;;
12202;SDS011;6164;42.178;24.622;2023-04-03T11:09:19;35.30;;;19.30;;
12202;SDS011;6164;42.178;24.622;2023-04-03T11:11:51;86.20;;;42.30;;
12202;SDS011;6164;42.178;24.622;2023-04-03T11:14:24;103.97;;;52.47;;
12202;SDS011;6164;42.178;24.622;2023-04-03T11:16:59;86.28;;;43.85;;
12202;SDS011;6164;42.178;24.622;2023-04-03T11:19:35;58.50;;;33.72;;
12202;SDS011;6164;42.178;24.622;2023-04-03T11:22:10;14.95;;;7.50;;
12202;SDS011;6164;42.178;24.622;2023-04-03T11:24:41;6.60;;;3.60;;
12202;SDS011;6164;42.178;24.622;2023-04-03T11:27:15;6.70;;;3.00;;
12202;SDS011;6164;42.178;24.622;2023-04-03T11:29:47;5.40;;;2.78;;
12202;SDS011;6164;42.178;24.622;2023-04-03T11:32:25;7.30;;;3.33;;
12202;SDS011;6164;42.178;24.622;2023-04-03T11:35:09;4.80;;;2.67;;
12202;SDS011;6164;42.178;24.622;2023-04-03T11:37:39;4.32;;;3.13;;
12202;SDS011;6164;42.178;24.622;2023-04-03T11:40:18;4.68;;;3.20;;
12202;SDS011;6164;42.178;24.622;2023-04-03T11:42:49;5.43;;;2.83;;
12202;SDS011;6164;42.178;24.622;2023-04-03T11:45:29;3.38;;;2.60;;
12202;SDS011;6164;42.178;24.622;2023-04-03T11:48:06;4.53;;;3.05;;
12202;SDS011;6164;42.178;24.622;2023-04-03T11:50:56;3.33;;;2.65;;
12202;SDS011;6164;42.178;24.622;2023-04-03T11:53:25;3.97;;;3.17;;
12202;SDS011;6164;42.178;24.622;2023-04-03T11:56:26;4.38;;;2.83;;
12202;SDS011;6164;42.178;24.622;2023-04-03T12:01:51;5.85;;;3.13;;
12202;SDS011;6164;42.178;24.622;2023-04-03T12:04:19;3.72;;;2.92;;
12202;SDS011;6164;42.178;24.622;2023-04-03T12:06:52;3.38;;;3.08;;
12202;SDS011;6164;42.178;24.622;2023-04-03T12:09:26;4.53;;;3.10;;
12202;SDS011;6164;42.178;24.622;2023-04-03T12:11:55;3.83;;;3.42;;
12202;SDS011;6164;42.178;24.622;2023-04-03T12:14:26;5.70;;;3.38;;
12202;SDS011;6164;42.178;24.622;2023-04-03T12:16:54;4.57;;;3.53;;
12202;SDS011;6164;42.178;24.622;2023-04-03T12:19:34;4.80;;;3.95;;
12202;SDS011;6164;42.178;24.622;2023-04-03T12:22:09;7.38;;;4.40;;
12202;SDS011;6164;42.178;24.622;2023-04-03T12:24:38;10.48;;;5.07;;
12202;SDS011;6164;42.178;24.622;2023-04-03T12:27:17;6.53;;;5.15;;
12202;SDS011;6164;42.178;24.622;2023-04-03T12:29:51;9.68;;;6.47;;
12202;SDS011;6164;42.178;24.622;2023-04-03T12:32:25;18.98;;;9.00;;
12202;SDS011;6164;42.178;24.622;2023-04-03T12:35:20;28.65;;;13.30;;
12202;SDS011;6164;42.178;24.622;2023-04-03T12:37:59;12.85;;;7.78;;
12202;SDS011;6164;42.178;24.622;2023-04-03T12:40:43;8.43;;;5.60;;
12202;SDS011;6164;42.178;24.622;2023-04-03T12:43:38;12.18;;;6.97;;
12202;SDS011;6164;42.178;24.622;2023-04-03T12:46:14;7.30;;;5.85;;
12202;SDS011;6164;42.178;24.622;2023-04-03T12:48:47;7.03;;;5.47;;
12202;SDS011;6164;42.178;24.622;2023-04-03T12:51:15;9.13;;;5.50;;
12202;SDS011;6164;42.178;24.622;2023-04-03T12:53:46;8.00;;;4.82;;
12202;SDS011;6164;42.178;24.622;2023-04-03T12:56:20;6.07;;;4.78;;
12202;SDS011;6164;42.178;24.622;2023-04-03T12:58:49;6.10;;;4.45;;
12202;SDS011;6164;42.178;24.622;2023-04-03T13:01:18;7.80;;;5.22;;
12202;SDS011;6164;42.178;24.622;2023-04-03T13:03:48;9.52;;;5.55;;
12202;SDS011;6164;42.178;24.622;2023-04-03T13:06:18;10.50;;;6.38;;
12202;SDS011;6164;42.178;24.622;2023-04-03T13:08:51;20.98;;;9.40;;
12202;SDS011;6164;42.178;24.622;2023-04-03T13:11:19;19.50;;;9.73;;
12202;SDS011;6164;42.178;24.622;2023-04-03T13:13:54;21.25;;;11.18;;
12202;SDS011;6164;42.178;24.622;2023-04-03T13:16:23;11.10;;;7.25;;
12202;SDS011;6164;42.178;24.622;2023-04-03T13:18:51;15.88;;;8.63;;
12202;SDS011;6164;42.178;24.622;2023-04-03T13:21:19;12.38;;;7.78;;
12202;SDS011;6164;42.178;24.622;2023-04-03T13:23:48;18.00;;;10.13;;
12202;SDS011;6164;42.178;24.622;2023-04-03T13:26:18;15.40;;;9.30;;
12202;SDS011;6164;42.178;24.622;2023-04-03T13:28:47;14.18;;;8.73;;
12202;SDS011;6164;42.178;24.622;2023-04-03T13:31:18;15.20;;;8.25;;
12202;SDS011;6164;42.178;24.622;2023-04-03T13:34:02;18.10;;;9.88;;
12202;SDS011;6164;42.178;24.622;2023-04-03T13:36:32;28.75;;;12.52;;
12202;SDS011;6164;42.178;24.622;2023-04-03T13:39:02;42.50;;;16.10;;
12202;SDS011;6164;42.178;24.622;2023-04-03T13:41:32;34.72;;;13.57;;
12202;SDS011;6164;42.178;24.622;2023-04-03T13:44:17;28.58;;;13.07;;
12202;SDS011;6164;42.178;24.622;2023-04-03T13:46:52;9.77;;;7.03;;
12202;SDS011;6164;42.178;24.622;2023-04-03T13:49:28;10.35;;;6.63;;
12202;SDS011;6164;42.178;24.622;2023-04-03T13:51:57;8.35;;;6.30;;
12202;SDS011;6164;42.178;24.622;2023-04-03T13:54:28;12.93;;;7.85;;
12202;SDS011;6164;42.178;24.622;2023-04-03T13:56:58;16.83;;;8.70;;
12202;SDS011;6164;42.178;24.622;2023-04-03T13:59:27;32.42;;;12.63;;
12202;SDS011;6164;42.178;24.622;2023-04-03T14:02:09;22.63;;;10.43;;
12202;SDS011;6164;42.178;24.622;2023-04-03T14:04:49;20.60;;;10.82;;
12202;SDS011;6164;42.178;24.622;2023-04-03T14:07:21;12.13;;;9.43;;
12202;SDS011;6164;42.178;24.622;2023-04-03T14:09:49;11.95;;;8.52;;
12202;SDS011;6164;42.178;24.622;2023-04-03T14:12:17;11.45;;;8.63;;
12202;SDS011;6164;42.178;24.622;2023-04-03T14:14:47;9.70;;;7.55;;
12202;SDS011;6164;42.178;24.622;2023-04-03T14:17:16;12.65;;;9.30;;
12202;SDS011;6164;42.178;24.622;2023-04-03T14:19:45;15.32;;;11.25;;
12202;SDS011;6164;42.178;24.622;2023-04-03T14:22:15;12.77;;;8.30;;
12202;SDS011;6164;42.178;24.622;2023-04-03T14:24:43;14.85;;;9.35;;
12202;SDS011;6164;42.178;24.622;2023-04-03T14:27:13;18.27;;;9.00;;
12202;SDS011;6164;42.178;24.622;2023-04-03T14:29:42;19.05;;;9.20;;
12202;SDS011;6164;42.178;24.622;2023-04-03T14:32:10;12.73;;;8.05;;
12202;SDS011;6164;42.178;24.622;2023-04-03T14:34:38;11.25;;;8.13;;
12202;SDS011;6164;42.178;24.622;2023-04-03T14:37:04;11.10;;;7.53;;
12202;SDS011;6164;42.178;24.622;2023-04-03T14:39:34;11.20;;;7.13;;
12202;SDS011;6164;42.178;24.622;2023-04-03T14:42:01;9.60;;;7.53;;
12202;SDS011;6164;42.178;24.622;2023-04-03T14:44:27;11.02;;;6.82;;
12202;SDS011;6164;42.178;24.622;2023-04-03T14:46:54;9.52;;;7.32;;
12202;SDS011;6164;42.178;24.622;2023-04-03T14:49:22;11.32;;;8.10;;
12202;SDS011;6164;42.178;24.622;2023-04-03T14:51:51;13.80;;;8.27;;
12202;SDS011;6164;42.178;24.622;2023-04-03T14:54:19;11.40;;;9.00;;
12202;SDS011;6164;42.178;24.622;2023-04-03T14:56:52;11.68;;;8.48;;
12202;SDS011;6164;42.178;24.622;2023-04-03T14:59:19;10.80;;;8.40;;
12202;SDS011;6164;42.178;24.622;2023-04-03T15:01:46;12.65;;;8.55;;
12202;SDS011;6164;42.178;24.622;2023-04-03T15:04:14;11.35;;;9.27;;
12202;SDS011;6164;42.178;24.622;2023-04-03T15:06:43;9.80;;;7.55;;
12202;SDS011;6164;42.178;24.622;2023-04-03T15:09:13;9.35;;;8.27;;
12202;SDS011;6164;42.178;24.622;2023-04-03T15:11:46;13.05;;;9.07;;